sensor_id;sensor_type;location;lat;lon;timestamp;P1;durP1;ratioP1;P2;durP2;ratioP2
66585;SDS011;53444;45.822;16.092;2023-03-02T00:01:59;27.77;;;13.60;;
66585;SDS011;53444;45.822;16.092;2023-03-02T00:04:30;24.77;;;11.67;;
66585;SDS011;53444;45.822;16.092;2023-03-02T00:06:59;26.38;;;12.63;;
66585;SDS011;53444;45.822;16.092;2023-03-02T00:09:34;24.63;;;11.50;;
66585;SDS011;53444;45.822;16.092;2023-03-02T00:12:02;26.10;;;12.30;;
66585;SDS011;53444;45.822;16.092;2023-03-02T00:14:31;31.65;;;13.57;;
66585;SDS011;53444;45.822;16.092;2023-03-02T00:16:58;29.80;;;12.90;;
66585;SDS011;53444;45.822;16.092;2023-03-02T00:19:26;26.92;;;13.00;;
66585;SDS011;53444;45.822;16.092;2023-03-02T00:21:53;25.55;;;12.50;;
66585;SDS011;53444;45.822;16.092;2023-03-02T00:24:20;28.25;;;13.23;;
66585;SDS011;53444;45.822;16.092;2023-03-02T00:26:46;24.80;;;12.40;;
66585;SDS011;53444;45.822;16.092;2023-03-02T00:29:13;28.57;;;12.83;;
66585;SDS011;53444;45.822;16.092;2023-03-02T00:31:41;22.63;;;11.73;;
66585;SDS011;53444;45.822;16.092;2023-03-02T00:34:08;30.23;;;12.45;;
66585;SDS011;53444;45.822;16.092;2023-03-02T00:36:34;21.80;;;12.18;;
66585;SDS011;53444;45.822;16.092;2023-03-02T00:39:01;30.90;;;13.30;;
66585;SDS011;53444;45.822;16.092;2023-03-02T00:41:29;26.07;;;13.33;;
66585;SDS011;53444;45.822;16.092;2023-03-02T00:43:56;26.08;;;12.65;;
66585;SDS011;53444;45.822;16.092;2023-03-02T00:46:23;26.92;;;12.85;;
66585;SDS011;53444;45.822;16.092;2023-03-02T00:48:51;28.73;;;13.43;;
66585;SDS011;53444;45.822;16.092;2023-03-02T00:51:18;30.27;;;12.68;;
66585;SDS011;53444;45.822;16.092;2023-03-02T00:53:45;28.57;;;13.13;;
66585;SDS011;53444;45.822;16.092;2023-03-02T00:56:12;24.27;;;12.15;;
66585;SDS011;53444;45.822;16.092;2023-03-02T00:58:39;29.23;;;13.48;;
66585;SDS011;53444;45.822;16.092;2023-03-02T01:01:06;24.50;;;12.48;;
66585;SDS011;53444;45.822;16.092;2023-03-02T01:03:36;26.67;;;13.35;;
66585;SDS011;53444;45.822;16.092;2023-03-02T01:06:05;23.73;;;12.23;;
66585;SDS011;53444;45.822;16.092;2023-03-02T01:08:38;23.45;;;12.15;;
66585;SDS011;53444;45.822;16.092;2023-03-02T01:11:11;28.48;;;12.52;;
66585;SDS011;53444;45.822;16.092;2023-03-02T01:13:38;25.13;;;12.98;;
66585;SDS011;53444;45.822;16.092;2023-03-02T01:16:05;26.60;;;12.25;;
66585;SDS011;53444;45.822;16.092;2023-03-02T01:18:32;28.93;;;12.60;;
66585;SDS011;53444;45.822;16.092;2023-03-02T01:21:03;24.92;;;11.93;;
66585;SDS011;53444;45.822;16.092;2023-03-02T01:23:33;26.80;;;12.75;;
66585;SDS011;53444;45.822;16.092;2023-03-02T01:25:59;25.85;;;12.50;;
66585;SDS011;53444;45.822;16.092;2023-03-02T01:28:26;26.10;;;12.80;;
66585;SDS011;53444;45.822;16.092;2023-03-02T01:30:53;23.23;;;11.90;;
66585;SDS011;53444;45.822;16.092;2023-03-02T01:33:20;26.77;;;13.27;;
66585;SDS011;53444;45.822;16.092;2023-03-02T01:35:47;27.13;;;13.13;;
66585;SDS011;53444;45.822;16.092;2023-03-02T01:38:15;24.20;;;12.20;;
66585;SDS011;53444;45.822;16.092;2023-03-02T01:40:42;27.85;;;12.45;;
66585;SDS011;53444;45.822;16.092;2023-03-02T01:43:10;24.33;;;12.10;;
66585;SDS011;53444;45.822;16.092;2023-03-02T01:45:43;24.20;;;11.90;;
66585;SDS011;53444;45.822;16.092;2023-03-02T01:48:17;25.58;;;12.18;;
66585;SDS011;53444;45.822;16.092;2023-03-02T01:50:47;29.85;;;12.48;;
66585;SDS011;53444;45.822;16.092;2023-03-02T01:53:16;22.67;;;11.93;;
66585;SDS011;53444;45.822;16.092;2023-03-02T01:55:43;23.40;;;11.43;;
66585;SDS011;53444;45.822;16.092;2023-03-02T01:58:12;28.48;;;12.13;;
66585;SDS011;53444;45.822;16.092;2023-03-02T02:00:41;27.63;;;11.70;;
66585;SDS011;53444;45.822;16.092;2023-03-02T02:03:10;30.15;;;12.88;;
66585;SDS011;53444;45.822;16.092;2023-03-02T02:05:40;22.95;;;11.95;;
66585;SDS011;53444;45.822;16.092;2023-03-02T02:08:09;23.83;;;11.20;;
66585;SDS011;53444;45.822;16.092;2023-03-02T02:10:37;24.25;;;11.88;;
66585;SDS011;53444;45.822;16.092;2023-03-02T02:13:07;23.83;;;12.02;;
66585;SDS011;53444;45.822;16.092;2023-03-02T02:15:35;23.05;;;12.07;;
66585;SDS011;53444;45.822;16.092;2023-03-02T02:18:02;24.67;;;12.88;;
66585;SDS011;53444;45.822;16.092;2023-03-02T02:20:31;26.80;;;13.00;;
66585;SDS011;53444;45.822;16.092;2023-03-02T02:23:09;24.65;;;12.15;;
66585;SDS011;53444;45.822;16.092;2023-03-02T02:28:43;24.40;;;12.27;;
66585;SDS011;53444;45.822;16.092;2023-03-02T02:31:14;23.73;;;12.98;;
66585;SDS011;53444;45.822;16.092;2023-03-02T02:33:45;23.50;;;11.07;;
66585;SDS011;53444;45.822;16.092;2023-03-02T02:36:17;26.75;;;13.20;;
66585;SDS011;53444;45.822;16.092;2023-03-02T02:38:47;26.85;;;13.65;;
66585;SDS011;53444;45.822;16.092;2023-03-02T02:41:19;23.70;;;12.13;;
66585;SDS011;53444;45.822;16.092;2023-03-02T02:43:47;26.38;;;12.63;;
66585;SDS011;53444;45.822;16.092;2023-03-02T02:46:15;24.37;;;12.27;;
66585;SDS011;53444;45.822;16.092;2023-03-02T02:48:41;21.48;;;11.65;;
66585;SDS011;53444;45.822;16.092;2023-03-02T02:51:08;23.38;;;11.30;;
66585;SDS011;53444;45.822;16.092;2023-03-02T02:53:43;25.05;;;12.60;;
66585;SDS011;53444;45.822;16.092;2023-03-02T02:56:13;24.17;;;12.20;;
66585;SDS011;53444;45.822;16.092;2023-03-02T02:58:43;23.33;;;11.00;;
66585;SDS011;53444;45.822;16.092;2023-03-02T03:01:12;24.80;;;12.52;;
66585;SDS011;53444;45.822;16.092;2023-03-02T03:03:40;24.38;;;12.50;;
66585;SDS011;53444;45.822;16.092;2023-03-02T03:06:13;26.83;;;12.27;;
66585;SDS011;53444;45.822;16.092;2023-03-02T03:08:50;26.15;;;12.52;;
66585;SDS011;53444;45.822;16.092;2023-03-02T03:11:25;23.50;;;12.07;;
66585;SDS011;53444;45.822;16.092;2023-03-02T03:13:59;26.45;;;13.27;;
66585;SDS011;53444;45.822;16.092;2023-03-02T03:16:29;23.77;;;11.93;;
66585;SDS011;53444;45.822;16.092;2023-03-02T03:19:00;23.73;;;12.40;;
66585;SDS011;53444;45.822;16.092;2023-03-02T03:21:31;24.73;;;11.95;;
66585;SDS011;53444;45.822;16.092;2023-03-02T03:23:58;23.13;;;11.50;;
66585;SDS011;53444;45.822;16.092;2023-03-02T03:26:25;25.20;;;12.68;;
66585;SDS011;53444;45.822;16.092;2023-03-02T03:28:51;23.35;;;12.82;;
66585;SDS011;53444;45.822;16.092;2023-03-02T03:31:22;24.15;;;11.73;;
66585;SDS011;53444;45.822;16.092;2023-03-02T03:33:50;25.17;;;11.63;;
66585;SDS011;53444;45.822;16.092;2023-03-02T03:36:17;23.27;;;12.10;;
66585;SDS011;53444;45.822;16.092;2023-03-02T03:38:44;23.70;;;11.80;;
66585;SDS011;53444;45.822;16.092;2023-03-02T03:41:11;26.25;;;12.30;;
66585;SDS011;53444;45.822;16.092;2023-03-02T03:43:37;23.15;;;12.70;;
66585;SDS011;53444;45.822;16.092;2023-03-02T03:46:04;23.55;;;12.63;;
66585;SDS011;53444;45.822;16.092;2023-03-02T03:48:32;24.47;;;12.30;;
66585;SDS011;53444;45.822;16.092;2023-03-02T03:50:59;27.05;;;12.25;;
66585;SDS011;53444;45.822;16.092;2023-03-02T03:53:26;22.95;;;12.45;;
66585;SDS011;53444;45.822;16.092;2023-03-02T03:55:53;21.55;;;11.80;;
66585;SDS011;53444;45.822;16.092;2023-03-02T03:58:21;26.60;;;13.05;;
66585;SDS011;53444;45.822;16.092;2023-03-02T04:00:48;20.33;;;11.20;;
66585;SDS011;53444;45.822;16.092;2023-03-02T04:03:15;22.25;;;11.95;;
66585;SDS011;53444;45.822;16.092;2023-03-02T04:05:43;21.23;;;11.93;;
66585;SDS011;53444;45.822;16.092;2023-03-02T04:08:10;23.63;;;11.95;;
66585;SDS011;53444;45.822;16.092;2023-03-02T04:10:37;22.05;;;11.52;;
66585;SDS011;53444;45.822;16.092;2023-03-02T04:13:04;20.67;;;10.47;;
66585;SDS011;53444;45.822;16.092;2023-03-02T04:15:31;20.33;;;10.93;;
66585;SDS011;53444;45.822;16.092;2023-03-02T04:17:57;19.73;;;10.43;;
66585;SDS011;53444;45.822;16.092;2023-03-02T04:20:24;17.63;;;9.43;;
66585;SDS011;53444;45.822;16.092;2023-03-02T04:22:54;21.15;;;10.25;;
66585;SDS011;53444;45.822;16.092;2023-03-02T04:25:22;21.20;;;10.70;;
66585;SDS011;53444;45.822;16.092;2023-03-02T04:27:51;22.77;;;10.38;;
66585;SDS011;53444;45.822;16.092;2023-03-02T04:30:20;25.58;;;10.98;;
66585;SDS011;53444;45.822;16.092;2023-03-02T04:32:48;19.38;;;10.07;;
66585;SDS011;53444;45.822;16.092;2023-03-02T04:35:15;19.35;;;10.38;;
66585;SDS011;53444;45.822;16.092;2023-03-02T04:37:42;20.17;;;9.47;;
66585;SDS011;53444;45.822;16.092;2023-03-02T04:40:13;21.08;;;9.73;;
66585;SDS011;53444;45.822;16.092;2023-03-02T04:45:25;19.92;;;10.00;;
66585;SDS011;53444;45.822;16.092;2023-03-02T04:47:52;19.80;;;9.27;;
66585;SDS011;53444;45.822;16.092;2023-03-02T04:50:18;18.07;;;8.87;;
66585;SDS011;53444;45.822;16.092;2023-03-02T04:52:45;19.98;;;10.55;;
66585;SDS011;53444;45.822;16.092;2023-03-02T04:55:16;18.55;;;9.73;;
66585;SDS011;53444;45.822;16.092;2023-03-02T04:57:44;18.88;;;9.68;;
66585;SDS011;53444;45.822;16.092;2023-03-02T05:00:11;17.77;;;9.80;;
66585;SDS011;53444;45.822;16.092;2023-03-02T05:02:39;19.53;;;10.17;;
66585;SDS011;53444;45.822;16.092;2023-03-02T05:05:06;18.60;;;8.77;;
66585;SDS011;53444;45.822;16.092;2023-03-02T05:07:38;17.02;;;9.02;;
66585;SDS011;53444;45.822;16.092;2023-03-02T05:10:08;19.02;;;9.25;;
66585;SDS011;53444;45.822;16.092;2023-03-02T05:12:44;19.13;;;9.13;;
66585;SDS011;53444;45.822;16.092;2023-03-02T05:15:22;18.13;;;9.17;;
66585;SDS011;53444;45.822;16.092;2023-03-02T05:17:50;15.27;;;8.35;;
66585;SDS011;53444;45.822;16.092;2023-03-02T05:20:17;22.45;;;9.45;;
66585;SDS011;53444;45.822;16.092;2023-03-02T05:22:44;17.70;;;9.23;;
66585;SDS011;53444;45.822;16.092;2023-03-02T05:25:11;19.83;;;10.10;;
66585;SDS011;53444;45.822;16.092;2023-03-02T05:27:38;18.63;;;10.13;;
66585;SDS011;53444;45.822;16.092;2023-03-02T05:30:07;18.80;;;9.88;;
66585;SDS011;53444;45.822;16.092;2023-03-02T05:32:34;24.13;;;10.77;;
66585;SDS011;53444;45.822;16.092;2023-03-02T05:35:01;19.60;;;9.52;;
66585;SDS011;53444;45.822;16.092;2023-03-02T05:37:28;19.63;;;9.68;;
66585;SDS011;53444;45.822;16.092;2023-03-02T05:39:54;19.70;;;9.33;;
66585;SDS011;53444;45.822;16.092;2023-03-02T05:42:22;18.67;;;9.52;;
66585;SDS011;53444;45.822;16.092;2023-03-02T05:44:49;20.63;;;9.38;;
66585;SDS011;53444;45.822;16.092;2023-03-02T05:47:17;18.63;;;9.25;;
66585;SDS011;53444;45.822;16.092;2023-03-02T05:49:47;17.70;;;8.60;;
66585;SDS011;53444;45.822;16.092;2023-03-02T05:52:15;14.97;;;8.67;;
66585;SDS011;53444;45.822;16.092;2023-03-02T05:54:42;19.60;;;9.60;;
66585;SDS011;53444;45.822;16.092;2023-03-02T05:57:12;21.20;;;9.13;;
66585;SDS011;53444;45.822;16.092;2023-03-02T05:59:39;17.63;;;7.65;;
66585;SDS011;53444;45.822;16.092;2023-03-02T06:02:06;22.35;;;9.05;;
66585;SDS011;53444;45.822;16.092;2023-03-02T06:04:35;15.23;;;8.10;;
66585;SDS011;53444;45.822;16.092;2023-03-02T06:07:07;18.55;;;9.20;;
66585;SDS011;53444;45.822;16.092;2023-03-02T06:09:36;16.90;;;7.90;;
66585;SDS011;53444;45.822;16.092;2023-03-02T06:12:11;17.83;;;8.10;;
66585;SDS011;53444;45.822;16.092;2023-03-02T06:14:46;16.30;;;8.30;;
66585;SDS011;53444;45.822;16.092;2023-03-02T06:17:13;16.43;;;7.73;;
66585;SDS011;53444;45.822;16.092;2023-03-02T06:19:43;16.73;;;8.20;;
66585;SDS011;53444;45.822;16.092;2023-03-02T06:22:22;15.80;;;8.25;;
66585;SDS011;53444;45.822;16.092;2023-03-02T06:24:53;16.67;;;8.02;;
66585;SDS011;53444;45.822;16.092;2023-03-02T06:27:25;19.52;;;9.15;;
66585;SDS011;53444;45.822;16.092;2023-03-02T06:29:58;19.07;;;8.90;;
66585;SDS011;53444;45.822;16.092;2023-03-02T06:32:31;17.65;;;8.73;;
66585;SDS011;53444;45.822;16.092;2023-03-02T06:35:01;15.45;;;9.38;;
66585;SDS011;53444;45.822;16.092;2023-03-02T06:37:33;17.88;;;9.02;;
66585;SDS011;53444;45.822;16.092;2023-03-02T06:40:01;20.70;;;9.90;;
66585;SDS011;53444;45.822;16.092;2023-03-02T06:42:29;18.90;;;8.80;;
66585;SDS011;53444;45.822;16.092;2023-03-02T06:44:57;20.67;;;9.88;;
66585;SDS011;53444;45.822;16.092;2023-03-02T06:47:24;18.45;;;9.43;;
66585;SDS011;53444;45.822;16.092;2023-03-02T06:49:51;20.30;;;10.38;;
66585;SDS011;53444;45.822;16.092;2023-03-02T06:52:19;20.23;;;9.52;;
66585;SDS011;53444;45.822;16.092;2023-03-02T06:54:47;23.03;;;9.73;;
66585;SDS011;53444;45.822;16.092;2023-03-02T06:57:19;21.50;;;9.45;;
66585;SDS011;53444;45.822;16.092;2023-03-02T06:59:46;21.05;;;10.00;;
66585;SDS011;53444;45.822;16.092;2023-03-02T07:02:17;20.27;;;9.77;;
66585;SDS011;53444;45.822;16.092;2023-03-02T07:04:44;19.55;;;9.55;;
66585;SDS011;53444;45.822;16.092;2023-03-02T07:07:11;18.90;;;10.07;;
66585;SDS011;53444;45.822;16.092;2023-03-02T07:09:40;18.58;;;10.25;;
66585;SDS011;53444;45.822;16.092;2023-03-02T07:12:07;20.65;;;10.32;;
66585;SDS011;53444;45.822;16.092;2023-03-02T07:14:34;26.27;;;12.70;;
66585;SDS011;53444;45.822;16.092;2023-03-02T07:17:03;32.25;;;17.20;;
66585;SDS011;53444;45.822;16.092;2023-03-02T07:19:30;28.10;;;13.70;;
66585;SDS011;53444;45.822;16.092;2023-03-02T07:21:57;32.20;;;15.40;;
66585;SDS011;53444;45.822;16.092;2023-03-02T07:24:24;22.55;;;11.35;;
66585;SDS011;53444;45.822;16.092;2023-03-02T07:26:52;20.88;;;10.60;;
66585;SDS011;53444;45.822;16.092;2023-03-02T07:29:19;20.25;;;11.07;;
66585;SDS011;53444;45.822;16.092;2023-03-02T07:31:47;22.00;;;11.70;;
66585;SDS011;53444;45.822;16.092;2023-03-02T07:34:19;21.98;;;10.55;;
66585;SDS011;53444;45.822;16.092;2023-03-02T07:36:46;24.52;;;11.40;;
66585;SDS011;53444;45.822;16.092;2023-03-02T07:39:14;22.75;;;10.70;;
66585;SDS011;53444;45.822;16.092;2023-03-02T07:41:41;21.42;;;11.15;;
66585;SDS011;53444;45.822;16.092;2023-03-02T07:44:09;21.63;;;9.87;;
66585;SDS011;53444;45.822;16.092;2023-03-02T07:46:37;17.98;;;9.85;;
66585;SDS011;53444;45.822;16.092;2023-03-02T07:49:04;22.45;;;11.02;;
66585;SDS011;53444;45.822;16.092;2023-03-02T07:51:31;22.00;;;10.50;;
66585;SDS011;53444;45.822;16.092;2023-03-02T07:53:58;22.10;;;10.32;;
66585;SDS011;53444;45.822;16.092;2023-03-02T07:56:27;18.03;;;9.60;;
66585;SDS011;53444;45.822;16.092;2023-03-02T07:58:57;24.25;;;12.77;;
66585;SDS011;53444;45.822;16.092;2023-03-02T08:01:27;47.83;;;22.80;;
66585;SDS011;53444;45.822;16.092;2023-03-02T08:03:55;61.70;;;32.67;;
66585;SDS011;53444;45.822;16.092;2023-03-02T08:06:22;65.10;;;34.17;;
66585;SDS011;53444;45.822;16.092;2023-03-02T08:08:50;34.83;;;18.80;;
66585;SDS011;53444;45.822;16.092;2023-03-02T08:11:17;25.67;;;13.25;;
66585;SDS011;53444;45.822;16.092;2023-03-02T08:13:44;23.83;;;12.80;;
66585;SDS011;53444;45.822;16.092;2023-03-02T08:16:13;20.77;;;11.75;;
66585;SDS011;53444;45.822;16.092;2023-03-02T08:18:42;35.72;;;15.80;;
66585;SDS011;53444;45.822;16.092;2023-03-02T08:21:10;29.33;;;14.50;;
66585;SDS011;53444;45.822;16.092;2023-03-02T08:23:37;24.48;;;12.43;;
66585;SDS011;53444;45.822;16.092;2023-03-02T08:26:04;20.60;;;11.27;;
66585;SDS011;53444;45.822;16.092;2023-03-02T08:28:32;22.60;;;11.18;;
66585;SDS011;53444;45.822;16.092;2023-03-02T08:31:00;22.38;;;11.23;;
66585;SDS011;53444;45.822;16.092;2023-03-02T08:33:28;19.53;;;10.67;;
66585;SDS011;53444;45.822;16.092;2023-03-02T08:35:58;21.98;;;11.00;;
66585;SDS011;53444;45.822;16.092;2023-03-02T08:38:26;22.67;;;10.65;;
66585;SDS011;53444;45.822;16.092;2023-03-02T08:40:57;21.90;;;11.65;;
66585;SDS011;53444;45.822;16.092;2023-03-02T08:43:25;19.90;;;10.48;;
66585;SDS011;53444;45.822;16.092;2023-03-02T08:45:52;22.47;;;11.63;;
66585;SDS011;53444;45.822;16.092;2023-03-02T08:48:20;22.40;;;11.55;;
66585;SDS011;53444;45.822;16.092;2023-03-02T08:50:54;25.13;;;12.52;;
66585;SDS011;53444;45.822;16.092;2023-03-02T08:53:24;26.08;;;13.00;;
66585;SDS011;53444;45.822;16.092;2023-03-02T08:55:52;24.00;;;12.27;;
66585;SDS011;53444;45.822;16.092;2023-03-02T08:58:19;23.60;;;12.17;;
66585;SDS011;53444;45.822;16.092;2023-03-02T09:00:47;25.23;;;12.73;;
66585;SDS011;53444;45.822;16.092;2023-03-02T09:03:15;25.52;;;12.10;;
66585;SDS011;53444;45.822;16.092;2023-03-02T09:05:48;24.83;;;12.45;;
66585;SDS011;53444;45.822;16.092;2023-03-02T09:08:16;21.80;;;11.43;;
66585;SDS011;53444;45.822;16.092;2023-03-02T09:10:44;19.43;;;10.83;;
66585;SDS011;53444;45.822;16.092;2023-03-02T09:13:12;29.83;;;13.25;;
66585;SDS011;53444;45.822;16.092;2023-03-02T09:16:09;37.45;;;16.38;;
66585;SDS011;53444;45.822;16.092;2023-03-02T09:18:37;34.00;;;15.02;;
66585;SDS011;53444;45.822;16.092;2023-03-02T09:21:05;24.05;;;12.70;;
66585;SDS011;53444;45.822;16.092;2023-03-02T09:23:35;21.63;;;11.17;;
66585;SDS011;53444;45.822;16.092;2023-03-02T09:26:04;22.02;;;11.85;;
66585;SDS011;53444;45.822;16.092;2023-03-02T09:28:32;22.02;;;11.40;;
66585;SDS011;53444;45.822;16.092;2023-03-02T09:31:01;23.83;;;12.82;;
66585;SDS011;53444;45.822;16.092;2023-03-02T09:33:29;23.35;;;11.68;;
66585;SDS011;53444;45.822;16.092;2023-03-02T09:35:57;24.20;;;11.80;;
66585;SDS011;53444;45.822;16.092;2023-03-02T09:38:25;20.48;;;11.57;;
66585;SDS011;53444;45.822;16.092;2023-03-02T09:40:59;23.95;;;12.98;;
66585;SDS011;53444;45.822;16.092;2023-03-02T09:43:42;28.92;;;16.48;;
66585;SDS011;53444;45.822;16.092;2023-03-02T09:46:17;29.65;;;15.57;;
66585;SDS011;53444;45.822;16.092;2023-03-02T09:48:52;24.50;;;13.40;;
66585;SDS011;53444;45.822;16.092;2023-03-02T09:51:31;27.73;;;13.32;;
66585;SDS011;53444;45.822;16.092;2023-03-02T09:54:06;24.80;;;14.18;;
66585;SDS011;53444;45.822;16.092;2023-03-02T09:56:38;23.83;;;12.68;;
66585;SDS011;53444;45.822;16.092;2023-03-02T09:59:12;24.10;;;13.65;;
66585;SDS011;53444;45.822;16.092;2023-03-02T10:01:47;28.30;;;12.47;;
66585;SDS011;53444;45.822;16.092;2023-03-02T10:04:20;27.45;;;13.13;;
66585;SDS011;53444;45.822;16.092;2023-03-02T10:06:53;22.83;;;11.70;;
66585;SDS011;53444;45.822;16.092;2023-03-02T10:09:23;22.63;;;11.52;;
66585;SDS011;53444;45.822;16.092;2023-03-02T10:12:01;26.42;;;13.60;;
66585;SDS011;53444;45.822;16.092;2023-03-02T10:14:39;27.43;;;13.50;;
66585;SDS011;53444;45.822;16.092;2023-03-02T10:17:16;28.65;;;13.10;;
66585;SDS011;53444;45.822;16.092;2023-03-02T10:19:54;27.58;;;12.35;;
66585;SDS011;53444;45.822;16.092;2023-03-02T10:22:26;27.33;;;12.70;;
66585;SDS011;53444;45.822;16.092;2023-03-02T10:25:01;24.55;;;12.68;;
66585;SDS011;53444;45.822;16.092;2023-03-02T10:27:41;24.87;;;10.87;;
66585;SDS011;53444;45.822;16.092;2023-03-02T10:30:14;22.88;;;11.95;;
66585;SDS011;53444;45.822;16.092;2023-03-02T10:32:47;25.15;;;12.20;;
66585;SDS011;53444;45.822;16.092;2023-03-02T10:35:16;24.52;;;11.43;;
66585;SDS011;53444;45.822;16.092;2023-03-02T10:37:45;30.23;;;14.10;;
66585;SDS011;53444;45.822;16.092;2023-03-02T10:42:50;33.13;;;14.70;;
66585;SDS011;53444;45.822;16.092;2023-03-02T10:45:21;30.75;;;14.60;;
66585;SDS011;53444;45.822;16.092;2023-03-02T10:48:02;28.65;;;14.60;;
66585;SDS011;53444;45.822;16.092;2023-03-02T10:50:30;29.40;;;14.68;;
66585;SDS011;53444;45.822;16.092;2023-03-02T10:52:58;26.33;;;13.63;;
66585;SDS011;53444;45.822;16.092;2023-03-02T10:55:25;23.25;;;12.77;;
66585;SDS011;53444;45.822;16.092;2023-03-02T10:57:59;28.42;;;13.70;;
66585;SDS011;53444;45.822;16.092;2023-03-02T11:00:28;23.08;;;12.27;;
66585;SDS011;53444;45.822;16.092;2023-03-02T11:02:56;25.60;;;13.15;;
66585;SDS011;53444;45.822;16.092;2023-03-02T11:05:26;25.93;;;12.77;;
66585;SDS011;53444;45.822;16.092;2023-03-02T11:07:56;29.02;;;13.02;;
66585;SDS011;53444;45.822;16.092;2023-03-02T11:10:26;29.20;;;13.95;;
66585;SDS011;53444;45.822;16.092;2023-03-02T11:12:56;28.33;;;14.15;;
66585;SDS011;53444;45.822;16.092;2023-03-02T11:15:27;27.55;;;13.20;;
66585;SDS011;53444;45.822;16.092;2023-03-02T11:18:00;24.53;;;13.37;;
66585;SDS011;53444;45.822;16.092;2023-03-02T11:20:33;25.23;;;12.93;;
66585;SDS011;53444;45.822;16.092;2023-03-02T11:23:17;26.38;;;14.50;;
66585;SDS011;53444;45.822;16.092;2023-03-02T11:25:51;32.15;;;15.20;;
66585;SDS011;53444;45.822;16.092;2023-03-02T11:28:28;38.72;;;18.52;;
66585;SDS011;53444;45.822;16.092;2023-03-02T11:31:01;31.37;;;16.70;;
66585;SDS011;53444;45.822;16.092;2023-03-02T11:33:40;30.10;;;15.05;;
66585;SDS011;53444;45.822;16.092;2023-03-02T11:36:14;25.15;;;14.57;;
66585;SDS011;53444;45.822;16.092;2023-03-02T11:38:46;29.13;;;13.73;;
66585;SDS011;53444;45.822;16.092;2023-03-02T11:41:20;27.25;;;13.98;;
66585;SDS011;53444;45.822;16.092;2023-03-02T11:43:55;25.43;;;12.77;;
66585;SDS011;53444;45.822;16.092;2023-03-02T11:46:26;23.63;;;13.30;;
66585;SDS011;53444;45.822;16.092;2023-03-02T11:48:56;30.85;;;16.40;;
66585;SDS011;53444;45.822;16.092;2023-03-02T11:51:27;32.03;;;16.88;;
66585;SDS011;53444;45.822;16.092;2023-03-02T11:53:58;31.10;;;16.25;;
66585;SDS011;53444;45.822;16.092;2023-03-02T11:56:28;25.57;;;14.40;;
66585;SDS011;53444;45.822;16.092;2023-03-02T11:58:59;34.45;;;18.35;;
66585;SDS011;53444;45.822;16.092;2023-03-02T12:01:30;37.80;;;18.63;;
66585;SDS011;53444;45.822;16.092;2023-03-02T12:04:07;28.50;;;14.27;;
66585;SDS011;53444;45.822;16.092;2023-03-02T12:06:36;28.83;;;14.25;;
66585;SDS011;53444;45.822;16.092;2023-03-02T12:11:56;29.13;;;14.45;;
66585;SDS011;53444;45.822;16.092;2023-03-02T12:14:28;33.15;;;14.73;;
66585;SDS011;53444;45.822;16.092;2023-03-02T12:17:03;28.58;;;14.68;;
66585;SDS011;53444;45.822;16.092;2023-03-02T12:19:41;28.75;;;14.05;;
66585;SDS011;53444;45.822;16.092;2023-03-02T12:22:09;26.00;;;13.73;;
66585;SDS011;53444;45.822;16.092;2023-03-02T12:24:40;27.30;;;14.02;;
66585;SDS011;53444;45.822;16.092;2023-03-02T12:27:21;26.85;;;14.15;;
66585;SDS011;53444;45.822;16.092;2023-03-02T12:29:55;27.33;;;12.95;;
66585;SDS011;53444;45.822;16.092;2023-03-02T12:32:23;29.38;;;14.50;;
66585;SDS011;53444;45.822;16.092;2023-03-02T12:34:52;27.13;;;12.53;;
66585;SDS011;53444;45.822;16.092;2023-03-02T12:37:23;27.42;;;13.65;;
66585;SDS011;53444;45.822;16.092;2023-03-02T12:43:07;24.42;;;13.13;;
66585;SDS011;53444;45.822;16.092;2023-03-02T12:45:51;26.48;;;13.38;;
66585;SDS011;53444;45.822;16.092;2023-03-02T12:48:30;28.50;;;16.03;;
66585;SDS011;53444;45.822;16.092;2023-03-02T12:51:06;32.80;;;16.85;;
66585;SDS011;53444;45.822;16.092;2023-03-02T12:53:41;28.08;;;14.80;;
66585;SDS011;53444;45.822;16.092;2023-03-02T12:56:09;27.60;;;14.45;;
66585;SDS011;53444;45.822;16.092;2023-03-02T12:58:48;25.67;;;13.68;;
66585;SDS011;53444;45.822;16.092;2023-03-02T13:01:21;26.03;;;13.50;;
66585;SDS011;53444;45.822;16.092;2023-03-02T13:03:50;23.38;;;13.85;;
66585;SDS011;53444;45.822;16.092;2023-03-02T13:06:18;28.48;;;16.42;;
66585;SDS011;53444;45.822;16.092;2023-03-02T13:08:48;25.10;;;14.20;;
66585;SDS011;53444;45.822;16.092;2023-03-02T13:11:21;23.90;;;12.88;;
66585;SDS011;53444;45.822;16.092;2023-03-02T13:13:55;23.73;;;13.20;;
66585;SDS011;53444;45.822;16.092;2023-03-02T13:16:25;23.30;;;12.93;;
66585;SDS011;53444;45.822;16.092;2023-03-02T13:18:54;24.13;;;12.52;;
66585;SDS011;53444;45.822;16.092;2023-03-02T13:21:23;28.20;;;14.88;;
66585;SDS011;53444;45.822;16.092;2023-03-02T13:23:55;23.33;;;12.10;;
66585;SDS011;53444;45.822;16.092;2023-03-02T13:26:24;25.00;;;11.87;;
66585;SDS011;53444;45.822;16.092;2023-03-02T13:28:59;28.13;;;13.60;;
66585;SDS011;53444;45.822;16.092;2023-03-02T13:31:29;31.85;;;16.48;;
66585;SDS011;53444;45.822;16.092;2023-03-02T13:33:57;30.27;;;15.77;;
66585;SDS011;53444;45.822;16.092;2023-03-02T13:36:25;32.03;;;17.92;;
66585;SDS011;53444;45.822;16.092;2023-03-02T13:38:55;31.50;;;15.00;;
66585;SDS011;53444;45.822;16.092;2023-03-02T13:41:25;29.13;;;15.60;;
66585;SDS011;53444;45.822;16.092;2023-03-02T13:43:53;30.20;;;16.33;;
66585;SDS011;53444;45.822;16.092;2023-03-02T13:46:26;28.17;;;15.95;;
66585;SDS011;53444;45.822;16.092;2023-03-02T13:48:59;28.20;;;16.00;;
66585;SDS011;53444;45.822;16.092;2023-03-02T13:51:29;26.87;;;14.17;;
66585;SDS011;53444;45.822;16.092;2023-03-02T13:53:59;41.50;;;22.13;;
66585;SDS011;53444;45.822;16.092;2023-03-02T13:56:29;55.20;;;28.60;;
66585;SDS011;53444;45.822;16.092;2023-03-02T13:58:59;43.47;;;22.35;;
66585;SDS011;53444;45.822;16.092;2023-03-02T14:01:29;39.10;;;19.30;;
66585;SDS011;53444;45.822;16.092;2023-03-02T14:03:56;29.33;;;14.90;;
66585;SDS011;53444;45.822;16.092;2023-03-02T14:06:25;23.85;;;12.95;;
66585;SDS011;53444;45.822;16.092;2023-03-02T14:08:52;39.47;;;19.30;;
66585;SDS011;53444;45.822;16.092;2023-03-02T14:11:18;29.48;;;15.65;;
66585;SDS011;53444;45.822;16.092;2023-03-02T14:13:46;27.42;;;14.45;;
66585;SDS011;53444;45.822;16.092;2023-03-02T14:16:17;30.37;;;13.73;;
66585;SDS011;53444;45.822;16.092;2023-03-02T14:18:45;29.00;;;15.18;;
66585;SDS011;53444;45.822;16.092;2023-03-02T14:21:14;41.72;;;19.80;;
66585;SDS011;53444;45.822;16.092;2023-03-02T14:23:42;39.50;;;19.77;;
66585;SDS011;53444;45.822;16.092;2023-03-02T14:26:16;34.60;;;17.33;;
66585;SDS011;53444;45.822;16.092;2023-03-02T14:28:56;47.40;;;21.83;;
66585;SDS011;53444;45.822;16.092;2023-03-02T14:31:23;51.03;;;22.33;;
66585;SDS011;53444;45.822;16.092;2023-03-02T14:33:52;30.98;;;16.02;;
66585;SDS011;53444;45.822;16.092;2023-03-02T14:36:20;31.20;;;15.27;;
66585;SDS011;53444;45.822;16.092;2023-03-02T14:38:53;30.75;;;15.63;;
66585;SDS011;53444;45.822;16.092;2023-03-02T14:41:21;29.93;;;14.57;;